Time;durP1;ratioP1;P1;durP2;ratioP2;P2;SDS_P1;SDS_P2;PMS_P1;PMS_P2;Temp;Humidity;BMP_temperature;BMP_pressure;BME280_temperature;BME280_humidity;BME280_pressure;Samples;Min_cycle;Max_cycle;Signal;HPM_P1;HPM_P2
2023/11/30 00:00:20;;;;;;;967.17;887.07;;;-0.60;99.90;;;;;;5114865;28;20563;-72
2023/11/30 00:02:47;;;;;;;961.50;882.00;;;-0.60;99.90;;;;;;5114516;28;20453;-72
2023/11/30 00:05:14;;;;;;;957.50;877.67;;;-0.60;99.90;;;;;;5114693;28;21009;-72
2023/11/30 00:07:41;;;;;;;958.08;876.45;;;-0.50;99.90;;;;;;5114748;28;20463;-72
2023/11/30 00:10:10;;;;;;;970.17;886.83;;;-0.50;99.90;;;;;;5114411;28;20202;-72
2023/11/30 00:12:36;;;;;;;992.50;907.65;;;-0.40;99.90;;;;;;5114952;28;20440;-72
2023/11/30 00:15:04;;;;;;;1005.47;919.80;;;-0.30;99.90;;;;;;5114787;28;20191;-72
2023/11/30 00:17:31;;;;;;;1040.23;948.53;;;-0.20;99.90;;;;;;5114728;28;20452;-72
2023/11/30 00:19:58;;;;;;;1007.93;922.20;;;-0.30;99.90;;;;;;5114570;28;20454;-72
2023/11/30 00:22:24;;;;;;;1014.13;927.93;;;-0.30;99.90;;;;;;5114650;28;20472;-72
2023/11/30 00:24:51;;;;;;;984.83;899.33;;;-0.30;99.90;;;;;;5114723;28;20948;-72
2023/11/30 00:27:19;;;;;;;980.20;894.23;;;-0.30;99.90;;;;;;5114470;28;20448;-72
2023/11/30 00:29:46;;;;;;;994.33;907.77;;;-0.40;99.90;;;;;;5114283;28;20445;-72
2023/11/30 00:32:13;;;;;;;1017.10;929.40;;;-0.30;99.90;;;;;;5113997;28;20538;-72
2023/11/30 00:34:40;;;;;;;991.00;905.43;;;-0.30;99.90;;;;;;5114721;28;20459;-72
2023/11/30 00:37:07;;;;;;;1016.23;929.60;;;-0.30;99.90;;;;;;5114393;28;20865;-72
2023/11/30 00:39:34;;;;;;;990.60;904.60;;;-0.30;99.90;;;;;;5114377;28;20527;-72
2023/11/30 00:42:01;;;;;;;997.47;911.97;;;-0.30;99.90;;;;;;5114047;28;20678;-72
2023/11/30 00:44:29;;;;;;;982.83;899.60;;;-0.30;99.90;;;;;;5113903;28;20517;-72
2023/11/30 00:46:56;;;;;;;980.77;897.87;;;-0.30;99.90;;;;;;5114720;28;20441;-72
2023/11/30 00:49:22;;;;;;;986.17;900.30;;;-0.30;99.90;;;;;;5114196;28;20812;-72
2023/11/30 00:51:49;;;;;;;1008.63;921.57;;;-0.30;99.90;;;;;;5113876;28;20439;-72
2023/11/30 00:54:16;;;;;;;1011.93;926.00;;;-0.30;99.90;;;;;;5113843;28;20437;-72
2023/11/30 00:56:43;;;;;;;1011.07;925.73;;;-0.20;99.90;;;;;;5113795;28;20519;-72
2023/11/30 00:59:10;;;;;;;1003.73;918.07;;;-0.20;99.90;;;;;;5113682;28;21008;-72
2023/11/30 01:01:38;;;;;;;1003.93;917.63;;;-0.20;99.90;;;;;;5113741;28;20476;-72
2023/11/30 01:04:05;;;;;;;1010.43;920.37;;;-0.20;99.90;;;;;;5113846;28;20451;-72
2023/11/30 01:06:32;;;;;;;1009.20;916.90;;;-0.10;99.90;;;;;;5113853;28;20453;-72
2023/11/30 01:08:59;;;;;;;1012.73;919.83;;;-0.10;99.90;;;;;;5113688;28;20463;-72
2023/11/30 01:11:25;;;;;;;1048.87;956.33;;;0.00;99.90;;;;;;5113129;28;20811;-72
2023/11/30 01:13:52;;;;;;;1050.07;956.60;;;0.00;99.90;;;;;;5113257;28;20447;-72
2023/11/30 01:16:19;;;;;;;1050.00;956.33;;;0.00;99.90;;;;;;5113501;28;20474;-72
2023/11/30 01:18:47;;;;;;;1040.57;947.73;;;0.00;99.90;;;;;;5113596;28;20452;-72
2023/11/30 01:21:14;;;;;;;1043.70;949.37;;;0.00;99.90;;;;;;5113346;28;20474;-72
2023/11/30 01:23:41;;;;;;;1051.30;953.40;;;0.10;99.90;;;;;;5112431;28;20444;-72
2023/11/30 01:26:08;;;;;;;1058.47;958.00;;;0.20;99.90;;;;;;5112976;28;20447;-72
2023/11/30 01:28:35;;;;;;;1046.30;947.03;;;0.20;99.90;;;;;;5113276;28;20447;-72
2023/11/30 01:31:01;;;;;;;1054.10;955.07;;;0.20;99.90;;;;;;5113190;28;20447;-72
2023/11/30 01:33:28;;;;;;;1027.93;930.57;;;0.30;99.90;;;;;;5113139;28;20449;-72
2023/11/30 01:35:56;;;;;;;1037.53;939.17;;;0.30;99.90;;;;;;5113403;28;20809;-72
2023/11/30 01:38:23;;;;;;;1045.10;945.80;;;0.30;99.90;;;;;;5113374;28;20531;-72
2023/11/30 01:40:50;;;;;;;1033.90;933.07;;;0.30;99.90;;;;;;5112436;28;20552;-72
2023/11/30 01:43:19;;;;;;;1030.90;931.33;;;0.30;99.90;;;;;;5113492;28;20444;-72
2023/11/30 01:45:47;;;;;;;1031.53;931.43;;;0.30;99.90;;;;;;5113173;28;20445;-72
2023/11/30 01:48:13;;;;;;;1039.50;940.37;;;0.30;99.90;;;;;;5113084;28;20445;-72
2023/11/30 01:50:41;;;;;;;1049.10;948.70;;;0.30;99.90;;;;;;5111740;28;20476;-72
2023/11/30 01:53:09;;;;;;;1029.37;929.77;;;0.30;99.90;;;;;;5112952;28;20455;-72
2023/11/30 01:55:36;;;;;;;1030.17;931.90;;;0.30;99.90;;;;;;5112656;28;20448;-72
2023/11/30 01:58:05;;;;;;;1040.73;942.13;;;0.30;99.90;;;;;;5112947;28;20455;-72
2023/11/30 02:00:32;;;;;;;1028.87;931.33;;;0.30;99.90;;;;;;5112334;28;20451;-72
2023/11/30 02:03:00;;;;;;;1030.20;932.50;;;0.30;99.90;;;;;;5112968;28;20550;-72
2023/11/30 02:05:27;;;;;;;1032.30;933.40;;;0.30;99.90;;;;;;5112583;28;20445;-72
2023/11/30 02:07:54;;;;;;;1030.93;932.37;;;0.30;99.90;;;;;;5112577;28;20461;-72
2023/11/30 02:10:25;;;;;;;1028.63;929.23;;;0.30;99.90;;;;;;5112901;28;20457;-72
2023/11/30 02:12:52;;;;;;;1048.13;948.78;;;0.40;99.90;;;;;;5113160;28;20486;-72
2023/11/30 02:15:19;;;;;;;1041.30;942.83;;;0.30;99.90;;;;;;5112834;28;20282;-72
2023/11/30 02:17:45;;;;;;;1043.23;945.63;;;0.30;99.90;;;;;;5112778;28;20532;-72
2023/11/30 02:20:12;;;;;;;1038.90;940.30;;;0.30;99.90;;;;;;5112598;28;20452;-72
2023/11/30 02:22:41;;;;;;;1026.60;929.70;;;0.30;99.90;;;;;;5112429;28;21082;-72
2023/11/30 02:25:08;;;;;;;1037.13;940.47;;;0.30;99.90;;;;;;5112674;28;20937;-72
2023/11/30 02:27:35;;;;;;;1040.40;943.00;;;0.30;99.90;;;;;;5112957;28;20480;-72
2023/11/30 02:30:02;;;;;;;1050.47;951.00;;;0.30;99.90;;;;;;5112438;28;20444;-72
2023/11/30 02:32:29;;;;;;;1047.50;948.30;;;0.50;99.90;;;;;;5112595;28;20444;-72
2023/11/30 02:34:55;;;;;;;1033.80;934.70;;;0.30;99.90;;;;;;5112414;28;20448;-72
2023/11/30 02:37:22;;;;;;;1039.67;940.97;;;0.40;99.90;;;;;;5112509;28;20455;-72
2023/11/30 02:39:50;;;;;;;1030.60;933.50;;;0.30;99.90;;;;;;5112477;28;20449;-72
2023/11/30 02:42:17;;;;;;;1025.57;928.10;;;0.30;99.90;;;;;;5112332;28;21018;-72
2023/11/30 02:44:44;;;;;;;1034.03;935.27;;;0.30;99.90;;;;;;5112524;28;20820;-72
2023/11/30 02:47:11;;;;;;;1037.87;938.00;;;0.30;99.90;;;;;;5112443;28;20449;-72
2023/11/30 02:49:38;;;;;;;1036.40;935.07;;;0.30;99.90;;;;;;5112238;28;20451;-72
2023/11/30 02:52:05;;;;;;;1028.80;927.40;;;0.40;99.90;;;;;;5112524;28;20524;-72
2023/11/30 02:54:32;;;;;;;1030.17;929.00;;;0.40;99.90;;;;;;5112346;28;20994;-72
2023/11/30 02:57:00;;;;;;;1025.17;924.07;;;0.40;99.90;;;;;;5112559;28;20444;-72
2023/11/30 02:59:27;;;;;;;1024.23;923.20;;;0.40;99.90;;;;;;5112679;28;20455;-72
2023/11/30 03:01:54;;;;;;;1010.07;909.40;;;0.40;99.90;;;;;;5115051;28;20473;-72
2023/11/30 03:04:21;;;;;;;1022.63;923.27;;;0.40;99.90;;;;;;5116301;28;20535;-72
2023/11/30 03:06:50;;;;;;;1027.07;927.53;;;0.40;99.90;;;;;;5116003;28;20457;-72
2023/11/30 03:09:17;;;;;;;1026.37;926.13;;;0.40;99.90;;;;;;5116033;28;20819;-72
2023/11/30 03:11:44;;;;;;;1045.73;945.27;;;0.40;99.90;;;;;;5116040;28;20438;-72
2023/11/30 03:14:12;;;;;;;1037.37;936.17;;;0.40;99.90;;;;;;5116023;28;20441;-72
2023/11/30 03:16:39;;;;;;;1028.30;926.40;;;0.40;99.90;;;;;;5115956;28;20444;-72
2023/11/30 03:19:06;;;;;;;1027.63;924.93;;;0.50;99.90;;;;;;5116196;28;20818;-72
2023/11/30 03:21:33;;;;;;;1026.97;923.87;;;0.50;99.90;;;;;;5115777;28;20469;-72
2023/11/30 03:23:59;;;;;;;1021.23;916.93;;;0.50;99.90;;;;;;5116146;28;20648;-72
2023/11/30 03:26:26;;;;;;;1025.00;919.30;;;0.50;99.90;;;;;;5115868;28;20528;-72
2023/11/30 03:28:53;;;;;;;1023.50;919.47;;;0.60;99.90;;;;;;5115814;28;20540;-72
2023/11/30 03:31:21;;;;;;;1027.37;923.00;;;0.60;99.90;;;;;;5115617;28;20479;-72
2023/11/30 03:33:49;;;;;;;1031.80;925.13;;;0.60;99.90;;;;;;5116022;28;20451;-72
2023/11/30 03:36:15;;;;;;;1045.40;939.33;;;0.60;99.90;;;;;;5115765;28;20834;-72
2023/11/30 03:38:42;;;;;;;1031.00;925.17;;;0.60;99.90;;;;;;5115165;28;20444;-72
2023/11/30 03:41:09;;;;;;;1030.17;926.27;;;0.60;99.90;;;;;;5115422;28;20801;-72
2023/11/30 03:43:36;;;;;;;1039.73;935.90;;;0.60;99.90;;;;;;5115501;28;20444;-72
2023/11/30 03:46:03;;;;;;;1057.70;953.47;;;0.60;99.90;;;;;;5114868;28;20447;-72
2023/11/30 03:48:31;;;;;;;1058.93;953.57;;;0.60;99.90;;;;;;5115576;28;20452;-72
2023/11/30 03:50:58;;;;;;;1027.40;921.70;;;0.60;99.90;;;;;;5115403;28;20451;-72
2023/11/30 03:53:24;;;;;;;1073.33;967.07;;;0.60;99.90;;;;;;5115396;28;20452;-72
2023/11/30 03:55:51;;;;;;;1074.13;967.20;;;0.60;99.90;;;;;;5115282;28;20444;-72
2023/11/30 03:58:18;;;;;;;1068.03;959.93;;;0.60;99.90;;;;;;5115210;28;20910;-72
2023/11/30 04:00:45;;;;;;;1045.43;938.97;;;0.70;99.90;;;;;;5115019;28;20799;-72
2023/11/30 04:03:12;;;;;;;1043.67;937.77;;;0.70;99.90;;;;;;5115141;28;20473;-72
2023/11/30 04:05:40;;;;;;;1014.47;909.90;;;0.70;99.90;;;;;;5115117;28;20449;-72
2023/11/30 04:08:07;;;;;;;1009.30;906.07;;;0.70;99.90;;;;;;5115047;28;20456;-72
2023/11/30 04:10:34;;;;;;;1004.10;899.50;;;0.70;99.90;;;;;;5114731;28;20455;-72
2023/11/30 04:13:00;;;;;;;1015.03;910.17;;;0.70;99.90;;;;;;5113710;28;20441;-72
2023/11/30 04:15:27;;;;;;;1005.00;899.17;;;0.70;99.90;;;;;;5114997;28;20457;-72
2023/11/30 04:17:54;;;;;;;1000.50;894.20;;;0.70;99.90;;;;;;5114715;28;20467;-72
2023/11/30 04:20:21;;;;;;;1009.83;901.07;;;0.70;99.90;;;;;;5114386;28;20532;-72
2023/11/30 04:22:49;;;;;;;1008.00;899.23;;;0.70;99.90;;;;;;5114719;28;20468;-72
2023/11/30 04:25:16;;;;;;;1000.77;892.27;;;0.70;99.90;;;;;;5114755;28;20447;-72
2023/11/30 04:27:43;;;;;;;993.90;884.70;;;0.70;99.90;;;;;;5114479;28;20445;-72
2023/11/30 04:30:10;;;;;;;990.80;877.30;;;0.70;99.90;;;;;;5114656;28;20453;-72
2023/11/30 04:32:37;;;;;;;984.03;874.77;;;0.70;99.90;;;;;;5114679;28;20468;-72
2023/11/30 04:35:05;;;;;;;995.33;878.17;;;0.80;99.90;;;;;;5113903;28;20452;-72
2023/11/30 04:37:32;;;;;;;995.67;886.23;;;0.70;99.90;;;;;;5114237;28;20490;-72
2023/11/30 04:40:00;;;;;;;996.00;886.50;;;0.70;99.90;;;;;;5114331;28;20456;-72
2023/11/30 04:42:27;;;;;;;995.13;886.10;;;0.80;99.90;;;;;;5114222;28;20562;-72
2023/11/30 04:44:54;;;;;;;1002.33;891.93;;;0.80;99.90;;;;;;5114334;28;20444;-72
2023/11/30 04:47:20;;;;;;;1002.93;892.80;;;0.80;99.90;;;;;;5114002;28;20628;-72
2023/11/30 04:49:47;;;;;;;1006.70;897.40;;;0.80;99.90;;;;;;5113365;28;20451;-72
2023/11/30 04:52:14;;;;;;;999.87;891.40;;;0.80;99.90;;;;;;5114141;28;20450;-72
2023/11/30 04:54:41;;;;;;;1017.30;907.13;;;0.80;99.90;;;;;;5114170;28;20531;-72
2023/11/30 04:57:10;;;;;;;1024.10;913.50;;;0.80;99.90;;;;;;5114452;28;20471;-72
2023/11/30 04:59:37;;;;;;;1007.47;897.83;;;0.80;99.90;;;;;;5113764;28;20524;-72
2023/11/30 05:02:05;;;;;;;1013.10;903.50;;;0.80;99.90;;;;;;5113674;28;20559;-72
2023/11/30 05:04:32;;;;;;;1015.27;900.57;;;0.80;99.90;;;;;;5113777;28;20529;-72
2023/11/30 05:06:58;;;;;;;1000.60;890.73;;;0.80;99.90;;;;;;5113320;28;20539;-72
2023/11/30 05:09:26;;;;;;;997.13;887.50;;;0.90;99.90;;;;;;5113403;28;20452;-72
2023/11/30 05:11:52;;;;;;;1037.40;926.83;;;0.80;99.90;;;;;;5113770;28;20441;-72
2023/11/30 05:14:21;;;;;;;1035.30;923.40;;;0.90;99.90;;;;;;5113807;28;20456;-72
2023/11/30 05:16:47;;;;;;;1034.90;923.80;;;0.90;99.90;;;;;;5113811;28;20531;-73
2023/11/30 05:19:15;;;;;;;1038.70;926.87;;;0.90;99.90;;;;;;5112915;28;21066;-73
2023/11/30 05:21:42;;;;;;;1033.80;922.70;;;0.80;99.90;;;;;;5113340;28;20503;-73
2023/11/30 05:24:09;;;;;;;1002.93;893.37;;;0.90;99.90;;;;;;5112917;28;20445;-73
2023/11/30 05:26:35;;;;;;;988.83;871.87;;;0.90;99.90;;;;;;5113138;28;20449;-73
2023/11/30 05:29:02;;;;;;;989.30;861.07;;;0.90;99.90;;;;;;5113559;28;20446;-73
2023/11/30 05:31:31;;;;;;;993.03;863.80;;;0.90;99.90;;;;;;5113340;28;20444;-73
2023/11/30 05:33:58;;;;;;;988.37;864.43;;;0.90;99.90;;;;;;5113292;28;20454;-73
2023/11/30 05:36:25;;;;;;;994.37;876.57;;;0.90;99.90;;;;;;5112941;28;20445;-73
2023/11/30 05:38:52;;;;;;;1007.20;896.40;;;0.90;99.90;;;;;;5113691;28;20470;-72
2023/11/30 05:41:19;;;;;;;987.03;863.50;;;0.90;99.90;;;;;;5113147;28;20450;-72
2023/11/30 05:43:46;;;;;;;985.97;870.20;;;0.90;99.90;;;;;;5113122;28;20473;-72
2023/11/30 05:46:13;;;;;;;995.57;859.80;;;0.90;99.90;;;;;;5112987;28;20547;-72
2023/11/30 05:48:41;;;;;;;1008.37;866.60;;;0.90;99.90;;;;;;5113066;28;20477;-72
2023/11/30 05:51:09;;;;;;;1001.70;860.57;;;0.90;99.90;;;;;;5113063;28;20945;-72
2023/11/30 05:53:36;;;;;;;1000.20;844.23;;;0.90;99.90;;;;;;5113082;28;20441;-72
2023/11/30 05:56:04;;;;;;;1007.87;858.00;;;0.90;99.90;;;;;;5112930;28;20445;-73
2023/11/30 05:58:31;;;;;;;1017.30;843.50;;;0.90;99.90;;;;;;5113072;28;20534;-73
2023/11/30 06:00:59;;;;;;;1017.40;843.03;;;0.90;99.90;;;;;;5112483;28;20444;-73
2023/11/30 06:03:26;;;;;;;1001.23;843.57;;;0.90;99.90;;;;;;5111882;28;20511;-73
2023/11/30 06:05:55;;;;;;;995.67;842.67;;;0.90;99.90;;;;;;5112253;28;20474;-72
2023/11/30 06:08:22;;;;;;;1014.00;850.90;;;0.90;99.90;;;;;;5111797;28;20478;-72
2023/11/30 06:10:49;;;;;;;1009.77;850.23;;;0.90;99.90;;;;;;5112423;28;20467;-72
2023/11/30 06:13:16;;;;;;;997.37;832.60;;;0.90;99.90;;;;;;5112621;28;20440;-72
2023/11/30 06:15:44;;;;;;;1010.10;829.00;;;0.90;99.90;;;;;;5112262;28;20443;-72
2023/11/30 06:18:11;;;;;;;1008.33;854.40;;;0.90;99.90;;;;;;5112059;28;20473;-73
2023/11/30 06:20:38;;;;;;;994.93;843.77;;;0.90;99.90;;;;;;5112854;28;20449;-73
2023/11/30 06:23:07;;;;;;;991.50;858.40;;;0.90;99.90;;;;;;5112259;28;20550;-72
2023/11/30 06:25:34;;;;;;;995.03;882.03;;;0.90;99.90;;;;;;5112445;28;20444;-72
2023/11/30 06:28:01;;;;;;;1006.17;893.77;;;0.90;99.90;;;;;;5111857;28;20502;-72
2023/11/30 06:30:28;;;;;;;1031.93;865.80;;;1.00;99.90;;;;;;5110414;28;20542;-72
2023/11/30 06:32:55;;;;;;;976.23;868.83;;;1.00;99.90;;;;;;5112040;28;20183;-72
2023/11/30 06:35:22;;;;;;;972.43;864.67;;;1.00;99.90;;;;;;5112352;28;21021;-72
2023/11/30 06:37:49;;;;;;;984.90;854.83;;;1.00;99.90;;;;;;5116667;28;20967;-73
2023/11/30 06:40:17;;;;;;;977.93;851.50;;;1.00;99.90;;;;;;5116023;28;20844;-73
2023/11/30 06:42:44;;;;;;;985.00;840.13;;;1.00;99.90;;;;;;5116570;28;20559;-73
2023/11/30 06:45:11;;;;;;;982.37;846.63;;;1.00;99.90;;;;;;5116213;28;20527;-73
2023/11/30 06:47:38;;;;;;;983.47;871.77;;;1.00;99.90;;;;;;5116828;28;20460;-73
2023/11/30 06:50:07;;;;;;;979.43;847.03;;;1.00;99.90;;;;;;5116326;28;20472;-73
2023/11/30 06:52:34;;;;;;;978.00;824.93;;;1.00;99.90;;;;;;5116105;28;20444;-73
2023/11/30 06:55:02;;;;;;;982.73;857.03;;;1.00;99.90;;;;;;5116076;28;20447;-73
2023/11/30 06:57:30;;;;;;;975.73;837.43;;;0.90;99.90;;;;;;5115465;28;21002;-73
2023/11/30 06:59:57;;;;;;;1000.13;846.53;;;1.00;99.90;;;;;;5115149;28;20817;-73
2023/11/30 07:02:24;;;;;;;1005.17;858.27;;;1.00;99.90;;;;;;5115738;28;20445;-73
2023/11/30 07:04:51;;;;;;;1012.83;852.83;;;1.00;99.90;;;;;;5115789;28;20529;-73
2023/11/30 07:07:18;;;;;;;1001.10;859.03;;;1.00;99.90;;;;;;5115064;28;20445;-73
2023/11/30 07:09:46;;;;;;;1000.03;862.23;;;1.00;99.90;;;;;;5115599;28;20445;-72
2023/11/30 07:12:12;;;;;;;995.43;864.87;;;0.90;99.90;;;;;;5115022;28;20941;-72
2023/11/30 07:14:41;;;;;;;975.57;865.97;;;0.90;99.90;;;;;;5115367;28;20455;-72
2023/11/30 07:17:08;;;;;;;967.73;861.87;;;0.90;99.90;;;;;;5114999;28;20925;-72
2023/11/30 07:19:35;;;;;;;990.77;885.67;;;0.90;99.90;;;;;;5115285;28;20520;-72
2023/11/30 07:22:02;;;;;;;975.83;872.67;;;0.90;99.90;;;;;;5114695;28;20445;-72
2023/11/30 07:24:28;;;;;;;988.00;885.00;;;0.80;99.90;;;;;;5114547;28;20887;-72
2023/11/30 07:26:55;;;;;;;989.22;889.22;;;0.80;99.90;;;;;;5115229;28;20446;-71
2023/11/30 07:29:22;;;;;;;993.80;899.63;;;0.80;99.90;;;;;;5115880;28;20194;-71
2023/11/30 07:31:53;;;;;;;1003.10;906.30;;;0.80;99.90;;;;;;5115538;28;20445;-71
2023/11/30 07:34:19;;;;;;;989.47;896.17;;;0.70;99.90;;;;;;5115831;28;20444;-71
2023/11/30 07:36:46;;;;;;;985.27;893.87;;;0.70;99.90;;;;;;5115791;28;20537;-71
2023/11/30 07:39:13;;;;;;;987.40;896.03;;;0.70;99.90;;;;;;5115654;28;20452;-71
2023/11/30 07:41:40;;;;;;;1003.85;911.30;;;0.70;99.90;;;;;;5115559;28;20449;-71
2023/11/30 07:44:07;;;;;;;1010.08;917.08;;;0.60;99.90;;;;;;5115754;28;20214;-71
2023/11/30 07:46:35;;;;;;;1014.20;919.17;;;0.60;99.90;;;;;;5115676;28;20282;-71
2023/11/30 07:49:04;;;;;;;1015.97;920.87;;;0.60;99.90;;;;;;5114457;28;20448;-71
2023/11/30 07:51:31;;;;;;;1007.80;909.03;;;0.60;99.90;;;;;;5115327;28;20452;-71
2023/11/30 07:53:58;;;;;;;997.20;894.87;;;0.70;99.90;;;;;;5115179;28;20447;-71
2023/11/30 07:56:25;;;;;;;987.87;884.80;;;0.80;99.90;;;;;;5115519;28;20449;-71
2023/11/30 07:58:51;;;;;;;982.87;879.13;;;0.80;99.90;;;;;;5115458;28;20979;-71
2023/11/30 08:01:18;;;;;;;965.70;861.20;;;0.90;99.90;;;;;;5115142;28;20487;-71
2023/11/30 08:03:46;;;;;;;966.23;859.27;;;0.90;99.90;;;;;;5113402;28;20555;-71
2023/11/30 08:06:15;;;;;;;966.90;840.20;;;1.00;99.90;;;;;;5114326;28;20846;-72
2023/11/30 08:08:42;;;;;;;1001.27;836.00;;;1.10;99.90;;;;;;5113907;28;20449;-71
2023/11/30 08:11:09;;;;;;;994.77;842.00;;;1.10;99.90;;;;;;5114137;28;20505;-72
2023/11/30 08:13:36;;;;;;;997.90;823.50;;;1.20;99.90;;;;;;5114523;28;20497;-72
2023/11/30 08:16:04;;;;;;;1006.50;833.53;;;1.20;99.90;;;;;;5114333;28;20532;-72
2023/11/30 08:18:31;;;;;;;1002.87;823.60;;;1.30;99.90;;;;;;5114452;28;20447;-72
2023/11/30 08:21:02;;;;;;;1002.93;827.13;;;1.40;99.90;;;;;;5114240;28;20446;-72
2023/11/30 08:23:30;;;;;;;1009.93;834.00;;;1.50;99.90;;;;;;5114573;28;20508;-73
2023/11/30 08:25:58;;;;;;;1005.17;825.40;;;1.60;99.90;;;;;;5114472;28;20452;-73
2023/11/30 08:28:24;;;;;;;996.67;839.40;;;1.70;99.90;;;;;;5114426;28;20447;-74
2023/11/30 08:30:52;;;;;;;988.20;822.13;;;1.80;99.90;;;;;;5114357;28;20546;-74
2023/11/30 08:33:19;;;;;;;989.57;839.13;;;1.90;99.90;;;;;;5114296;28;20441;-74
2023/11/30 08:35:45;;;;;;;991.00;850.03;;;1.90;99.90;;;;;;5114207;28;20939;-75
2023/11/30 08:38:12;;;;;;;979.37;841.40;;;2.00;99.90;;;;;;5114387;28;20600;-75
2023/11/30 08:40:41;;;;;;;966.50;828.73;;;2.10;99.90;;;;;;5114206;28;20457;-75
2023/11/30 08:43:08;;;;;;;944.50;835.47;;;2.30;99.90;;;;;;5114029;28;20479;-76
2023/11/30 08:45:35;;;;;;;961.23;856.30;;;2.30;99.90;;;;;;5113872;28;20871;-76
2023/11/30 08:48:02;;;;;;;948.37;846.13;;;2.40;99.90;;;;;;5113779;28;20449;-76
2023/11/30 08:50:29;;;;;;;949.60;849.30;;;2.50;99.90;;;;;;5114154;28;20815;-76
2023/11/30 08:52:56;;;;;;;942.63;844.97;;;2.60;99.90;;;;;;5114125;28;20449;-76
2023/11/30 08:55:24;;;;;;;974.60;877.57;;;2.70;99.90;;;;;;5113852;28;20448;-78
2023/11/30 08:57:52;;;;;;;956.27;861.67;;;2.80;99.90;;;;;;5113687;28;20542;-78
2023/11/30 09:00:21;;;;;;;1003.97;900.20;;;2.70;99.90;;;;;;5113509;28;20848;-78
2023/11/30 09:02:48;;;;;;;1074.40;916.63;;;2.60;99.90;;;;;;5113544;28;20452;-77
2023/11/30 09:05:15;;;;;;;1031.37;920.23;;;2.70;99.90;;;;;;5113922;28;20451;-77
2023/11/30 09:07:42;;;;;;;1037.73;924.90;;;2.70;99.90;;;;;;5113628;28;20453;-77
2023/11/30 09:10:10;;;;;;;975.17;888.17;;;2.70;99.90;;;;;;5113527;28;20804;-77
2023/11/30 09:12:36;;;;;;;946.57;868.77;;;2.70;99.90;;;;;;5113519;28;20470;-78
2023/11/30 09:15:08;;;;;;;932.53;855.97;;;2.60;99.90;;;;;;5113247;28;20440;-78
2023/11/30 09:17:35;;;;;;;939.63;861.50;;;2.70;99.90;;;;;;5113985;28;20785;-78
2023/11/30 09:20:05;;;;;;;934.83;858.30;;;2.70;99.90;;;;;;5113715;28;20531;-78
2023/11/30 09:22:32;;;;;;;928.43;853.90;;;2.80;99.90;;;;;;5113413;28;20443;-77
2023/11/30 09:24:59;;;;;;;925.17;851.77;;;2.90;99.90;;;;;;5113532;28;20487;-77
2023/11/30 09:27:26;;;;;;;932.60;861.83;;;3.00;99.90;;;;;;5113486;28;20450;-77
2023/11/30 09:29:54;;;;;;;924.00;857.80;;;3.10;99.90;;;;;;5112558;28;20525;-77
2023/11/30 09:32:23;;;;;;;904.55;844.00;;;3.20;99.90;;;;;;5112599;28;20453;-77
2023/11/30 09:34:50;;;;;;;862.07;809.27;;;3.20;99.90;;;;;;5113663;28;20277;-77
2023/11/30 09:37:17;;;;;;;848.17;795.87;;;3.40;99.90;;;;;;5113432;28;20459;-76
2023/11/30 09:39:44;;;;;;;856.70;803.73;;;3.50;99.90;;;;;;5112969;28;20460;-76
2023/11/30 09:42:15;;;;;;;836.27;785.77;;;3.50;99.90;;;;;;5113199;28;20936;-76
2023/11/30 09:44:43;;;;;;;803.83;757.03;;;3.60;99.90;;;;;;5113156;28;20557;-76
2023/11/30 09:47:10;;;;;;;769.57;727.57;;;3.60;99.90;;;;;;5113140;28;20909;-76
2023/11/30 09:49:38;;;;;;;737.17;699.47;;;3.60;99.90;;;;;;5113336;28;20459;-76
2023/11/30 09:52:06;;;;;;;643.97;613.43;;;3.60;99.90;;;;;;5113085;28;20448;-76
2023/11/30 09:54:33;;;;;;;580.43;553.50;;;3.60;99.90;;;;;;5113144;28;20455;-76
2023/11/30 09:57:00;;;;;;;592.97;565.73;;;3.60;99.90;;;;;;5112955;28;20505;-75
2023/11/30 09:59:27;;;;;;;533.90;510.23;;;3.50;99.90;;;;;;5113191;28;20450;-75
2023/11/30 10:01:56;;;;;;;453.13;434.20;;;3.60;99.90;;;;;;5112998;28;20456;-75
2023/11/30 10:04:25;;;;;;;470.50;450.60;;;3.60;99.90;;;;;;5112845;28;21012;-75
2023/11/30 10:06:55;;;;;;;470.97;450.57;;;3.70;99.90;;;;;;5112761;28;21081;-75
2023/11/30 10:09:22;;;;;;;405.90;388.80;;;3.70;99.90;;;;;;5112911;28;20455;-75
2023/11/30 10:11:49;;;;;;;443.70;425.40;;;3.70;99.90;;;;;;5112055;28;20448;-75
2023/11/30 10:14:17;;;;;;;521.77;498.30;;;3.60;99.90;;;;;;5112793;28;20441;-75
2023/11/30 10:16:45;;;;;;;569.03;543.03;;;3.50;99.90;;;;;;5112897;28;20455;-75
2023/11/30 10:19:13;;;;;;;632.20;602.47;;;3.50;99.90;;;;;;5112665;28;20653;-75
2023/11/30 10:21:41;;;;;;;661.57;628.77;;;3.30;99.90;;;;;;5112686;28;20478;-75
2023/11/30 10:24:10;;;;;;;696.00;661.20;;;3.30;99.90;;;;;;5112437;28;20478;-74
2023/11/30 10:26:37;;;;;;;727.70;690.20;;;3.20;99.90;;;;;;5112878;28;20505;-74
2023/11/30 10:29:06;;;;;;;750.07;709.77;;;3.20;99.90;;;;;;5112706;28;20451;-74
2023/11/30 10:31:36;;;;;;;768.27;725.30;;;3.20;99.90;;;;;;5112450;28;20452;-74
2023/11/30 10:34:09;;;;;;;780.47;736.37;;;3.10;99.90;;;;;;5112682;28;20451;-74
2023/11/30 10:36:38;;;;;;;800.63;754.87;;;3.10;99.90;;;;;;5112514;28;20444;-74
2023/11/30 10:39:12;;;;;;;803.40;757.20;;;3.10;99.90;;;;;;5112679;28;20537;-74
2023/11/30 10:41:49;;;;;;;809.17;762.47;;;3.20;99.90;;;;;;5112814;28;20448;-74
2023/11/30 10:44:25;;;;;;;804.47;758.87;;;3.20;99.90;;;;;;5112759;28;20501;-74
2023/11/30 10:46:54;;;;;;;811.43;763.73;;;3.30;99.90;;;;;;5112640;28;20459;-74
2023/11/30 10:49:23;;;;;;;820.93;771.80;;;3.40;99.90;;;;;;5112378;28;21121;-74
2023/11/30 10:51:52;;;;;;;825.93;775.70;;;3.30;99.90;;;;;;5112558;28;20451;-74
2023/11/30 10:54:27;;;;;;;829.03;779.30;;;3.30;99.90;;;;;;5112548;28;20452;-74
2023/11/30 10:56:56;;;;;;;825.63;776.10;;;3.40;99.90;;;;;;5112396;28;20509;-74
2023/11/30 10:59:24;;;;;;;824.90;775.60;;;3.50;99.90;;;;;;5112239;28;20954;-74
2023/11/30 11:01:51;;;;;;;827.93;778.67;;;3.50;99.90;;;;;;5112227;28;20505;-74
2023/11/30 11:04:18;;;;;;;842.60;791.43;;;3.60;99.90;;;;;;5112254;28;20472;-74
2023/11/30 11:06:46;;;;;;;838.70;787.90;;;3.60;99.90;;;;;;5112198;28;21001;-74
2023/11/30 11:09:15;;;;;;;829.80;780.80;;;3.60;99.90;;;;;;5112207;28;20545;-74
2023/11/30 11:11:43;;;;;;;829.40;780.47;;;3.70;99.90;;;;;;5112378;28;20487;-74
2023/11/30 11:14:29;;;;;;;828.63;781.03;;;3.80;99.90;;;;;;5112433;28;20520;-74
2023/11/30 11:17:06;;;;;;;823.77;776.87;;;4.00;99.90;;;;;;5112188;28;20466;-74
2023/11/30 11:19:33;;;;;;;802.67;757.97;;;4.20;99.90;;;;;;5112141;28;20443;-74
2023/11/30 11:22:00;;;;;;;746.87;707.50;;;4.30;99.90;;;;;;5113031;28;20448;-74
2023/11/30 11:24:29;;;;;;;660.73;628.13;;;4.30;99.90;;;;;;5115832;28;20480;-74
2023/11/30 11:26:59;;;;;;;694.13;659.10;;;4.20;99.90;;;;;;5116219;28;20467;-74
2023/11/30 11:29:29;;;;;;;598.07;569.47;;;4.20;99.90;;;;;;5116015;28;20539;-74
2023/11/30 11:31:58;;;;;;;627.70;597.87;;;4.30;99.90;;;;;;5115771;28;20444;-74
2023/11/30 11:34:25;;;;;;;652.43;621.10;;;4.30;99.90;;;;;;5115773;28;20944;-74
2023/11/30 11:36:52;;;;;;;591.83;564.10;;;4.40;99.90;;;;;;5115920;28;20874;-74
2023/11/30 11:39:21;;;;;;;560.00;533.67;;;4.50;99.90;;;;;;5115580;28;21000;-74
2023/11/30 11:41:48;;;;;;;530.20;505.90;;;4.60;99.90;;;;;;5115729;28;20482;-74
2023/11/30 11:44:15;;;;;;;413.30;394.37;;;4.80;99.90;;;;;;5115637;28;20560;-74
2023/11/30 11:46:44;;;;;;;323.93;309.63;;;4.90;99.90;;;;;;5115509;28;20538;-74
2023/11/30 11:49:10;;;;;;;314.97;301.17;;;5.10;99.90;;;;;;5115787;28;20446;-74
2023/11/30 11:51:44;;;;;;;381.07;364.37;;;5.10;99.90;;;;;;5115215;28;20598;-74
2023/11/30 11:54:29;;;;;;;361.43;345.17;;;5.10;99.90;;;;;;5115594;28;20441;-74
2023/11/30 11:56:56;;;;;;;330.27;315.53;;;5.00;99.90;;;;;;5115553;28;20957;-74
2023/11/30 11:59:26;;;;;;;321.10;306.90;;;5.00;99.90;;;;;;5115369;28;20443;-75
2023/11/30 12:01:55;;;;;;;293.30;281.10;;;5.00;99.90;;;;;;5115154;28;20538;-75
2023/11/30 12:04:27;;;;;;;294.67;282.33;;;5.10;99.90;;;;;;5115449;28;21288;-75
2023/11/30 12:06:54;;;;;;;259.33;247.63;;;5.10;99.90;;;;;;5114924;28;21016;-75
2023/11/30 12:09:21;;;;;;;204.87;195.77;;;5.00;99.90;;;;;;5115158;28;20528;-75
2023/11/30 12:11:48;;;;;;;192.23;183.27;;;4.90;99.90;;;;;;5115193;28;20454;-75